Time;durP1;ratioP1;P1;durP2;ratioP2;P2;SDS_P1;SDS_P2;PMS_P1;PMS_P2;Temp;Humidity;BMP_temperature;BMP_pressure;BME280_temperature;BME280_humidity;BME280_pressure;Samples;Min_cycle;Max_cycle;Signal;HPM_P1;HPM_P2
2021/12/01 00:01:05;;;;;;;12.00;4.07;;;5.40;99.90;;;;;;5024271;28;20545;-75
2021/12/01 00:03:31;;;;;;;10.32;3.03;;;5.40;99.90;;;;;;5012855;28;20045;-74
2021/12/01 00:05:57;;;;;;;14.85;3.22;;;5.40;99.90;;;;;;5017886;28;20476;-74
2021/12/01 00:08:23;;;;;;;17.13;3.60;;;5.40;99.90;;;;;;5021053;28;20024;-74
2021/12/01 00:10:48;;;;;;;12.07;3.10;;;5.50;99.90;;;;;;5027289;28;20027;-74
2021/12/01 00:13:18;;;;;;;15.82;3.63;;;5.50;99.90;;;;;;5021764;28;20481;-74
2021/12/01 00:15:45;;;;;;;12.80;3.88;;;5.60;99.90;;;;;;5021841;28;20030;-74
2021/12/01 00:18:11;;;;;;;13.73;3.35;;;5.50;99.90;;;;;;5022148;28;20026;-75
2021/12/01 00:20:38;;;;;;;11.05;2.85;;;5.50;99.90;;;;;;5021979;28;20035;-75
2021/12/01 00:23:04;;;;;;;13.93;3.10;;;5.50;99.90;;;;;;5020160;28;20029;-74
2021/12/01 00:25:32;;;;;;;17.30;3.28;;;5.50;99.90;;;;;;5023160;28;20033;-74
2021/12/01 00:27:58;;;;;;;14.60;3.42;;;5.50;99.90;;;;;;5020453;28;20100;-74
2021/12/01 00:30:25;;;;;;;16.20;4.20;;;5.50;99.90;;;;;;5019319;28;20064;-75
2021/12/01 00:32:53;;;;;;;17.73;4.45;;;5.50;99.90;;;;;;5014809;28;20527;-74
2021/12/01 00:35:19;;;;;;;12.65;4.25;;;5.50;99.90;;;;;;5021160;28;20026;-71
2021/12/01 00:37:45;;;;;;;12.73;4.20;;;5.50;99.90;;;;;;5017850;28;20052;-74
2021/12/01 00:40:12;;;;;;;11.32;3.97;;;5.50;99.90;;;;;;5017249;28;20374;-74
2021/12/01 00:42:39;;;;;;;16.05;4.43;;;5.50;99.90;;;;;;5024793;28;20090;-74
2021/12/01 00:45:11;;;;;;;20.50;4.15;;;5.50;99.90;;;;;;5023109;28;20172;-74
2021/12/01 00:50:09;;;;;;;15.20;4.50;;;5.60;99.90;;;;;;5020374;28;20396;-74
2021/12/01 00:52:35;;;;;;;18.50;5.07;;;5.60;99.90;;;;;;5018293;28;20026;-73
2021/12/01 00:55:01;;;;;;;17.58;4.88;;;5.60;99.90;;;;;;5020582;28;20030;-74
2021/12/01 00:57:27;;;;;;;18.30;5.32;;;5.60;99.90;;;;;;5020121;28;20026;-72
2021/12/01 00:59:52;;;;;;;19.05;5.18;;;5.60;99.90;;;;;;5022617;28;20038;-74
2021/12/01 01:02:18;;;;;;;15.13;5.38;;;5.60;99.90;;;;;;5021449;28;20174;-72
2021/12/01 01:04:44;;;;;;;12.90;4.95;;;5.50;99.90;;;;;;5006139;28;20034;-72
2021/12/01 01:07:10;;;;;;;15.55;5.68;;;5.60;99.90;;;;;;5020485;28;20051;-71
2021/12/01 01:09:38;;;;;;;24.25;6.35;;;5.50;99.90;;;;;;5021924;28;20041;-73
2021/12/01 01:17:36;;;;;;;17.13;5.80;;;5.50;99.90;;;;;;5018246;28;20111;-73
2021/12/01 01:20:04;;;;;;;19.42;6.05;;;5.50;99.90;;;;;;5024476;28;20377;-72
2021/12/01 01:22:30;;;;;;;21.35;5.68;;;5.60;99.90;;;;;;5004949;28;20033;-74
2021/12/01 01:24:56;;;;;;;14.32;5.18;;;5.60;99.90;;;;;;5027710;28;20427;-73
2021/12/01 01:27:23;;;;;;;17.55;5.43;;;5.60;99.90;;;;;;5017199;28;20021;-75
2021/12/01 01:29:49;;;;;;;13.73;4.18;;;5.60;99.90;;;;;;5020713;28;20034;-75
2021/12/01 01:32:15;;;;;;;17.88;4.95;;;5.60;99.90;;;;;;5018530;28;20084;-73
2021/12/01 01:34:41;;;;;;;21.17;5.57;;;5.50;99.90;;;;;;5005737;28;20391;-72
2021/12/01 01:37:07;;;;;;;17.33;5.07;;;5.50;99.90;;;;;;5021320;28;20577;-72
2021/12/01 01:39:33;;;;;;;19.15;5.07;;;5.50;99.90;;;;;;5019631;28;20152;-70
2021/12/01 01:41:59;;;;;;;18.25;4.55;;;5.50;99.90;;;;;;5006325;28;20038;-71
2021/12/01 01:44:25;;;;;;;13.02;4.55;;;5.50;99.90;;;;;;5022570;28;20041;-73
2021/12/01 01:46:50;;;;;;;16.58;6.80;;;5.50;99.90;;;;;;5020859;28;20026;-73
2021/12/01 01:49:20;;;;;;;16.00;5.00;;;5.50;99.90;;;;;;5019065;28;20030;-75
2021/12/01 01:51:48;;;;;;;13.35;4.65;;;5.50;99.90;;;;;;5020491;28;20026;-74
2021/12/01 01:54:14;;;;;;;23.40;6.03;;;5.40;99.90;;;;;;5021350;28;20548;-72
2021/12/01 01:56:41;;;;;;;18.60;5.63;;;5.40;99.90;;;;;;5006997;28;20036;-72
2021/12/01 01:59:07;;;;;;;14.38;5.32;;;5.50;99.90;;;;;;5021789;28;20396;-73
2021/12/01 02:01:46;;;;;;;14.32;4.90;;;5.40;99.90;;;;;;5024688;28;20584;-73
2021/12/01 02:04:15;;;;;;;14.18;4.80;;;5.40;99.90;;;;;;5002449;28;20037;-72
2021/12/01 02:06:43;;;;;;;18.63;6.30;;;5.40;99.90;;;;;;5001850;28;20029;-72
2021/12/01 02:09:09;;;;;;;15.57;5.53;;;5.40;99.90;;;;;;5006771;28;20025;-74
2021/12/01 02:11:35;;;;;;;16.98;5.70;;;5.40;99.90;;;;;;5021157;28;20033;-73
2021/12/01 02:14:01;;;;;;;13.25;5.05;;;5.40;99.90;;;;;;5018172;28;20033;-73
2021/12/01 02:16:27;;;;;;;22.33;5.85;;;5.40;99.90;;;;;;5017726;28;20055;-73
2021/12/01 02:18:54;;;;;;;18.42;5.85;;;5.40;99.90;;;;;;5001279;28;20472;-72
2021/12/01 02:21:28;;;;;;;19.92;5.90;;;5.40;99.90;;;;;;5017570;28;20025;-72
2021/12/01 02:24:07;;;;;;;15.90;5.78;;;5.40;99.90;;;;;;5020053;28;20032;-72
2021/12/01 02:26:35;;;;;;;13.63;5.10;;;5.40;99.90;;;;;;5017106;28;20061;-72
2021/12/01 02:29:04;;;;;;;15.38;5.43;;;5.40;99.90;;;;;;5017134;28;20053;-73
2021/12/01 02:31:35;;;;;;;17.77;5.95;;;5.40;99.90;;;;;;5018666;28;20033;-71
2021/12/01 02:34:04;;;;;;;11.63;4.95;;;5.40;99.90;;;;;;5026237;28;20017;-73
2021/12/01 02:36:30;;;;;;;11.90;5.05;;;5.40;99.90;;;;;;5024245;28;20480;-73
2021/12/01 02:38:56;;;;;;;13.18;5.13;;;5.40;99.90;;;;;;5018573;28;20038;-73
2021/12/01 02:41:28;;;;;;;11.68;4.47;;;5.40;99.90;;;;;;5019793;28;20038;-73
2021/12/01 02:43:54;;;;;;;10.90;5.38;;;5.40;99.90;;;;;;5019364;28;20022;-73
2021/12/01 02:46:21;;;;;;;13.55;5.10;;;5.40;99.90;;;;;;5018749;28;20022;-73
2021/12/01 02:48:47;;;;;;;11.90;5.57;;;5.40;99.90;;;;;;5001683;28;20053;-73
2021/12/01 02:51:13;;;;;;;13.18;5.13;;;5.40;99.90;;;;;;4999903;28;20064;-73
2021/12/01 02:53:41;;;;;;;11.27;5.72;;;5.40;99.90;;;;;;5019664;28;20108;-72
2021/12/01 02:56:08;;;;;;;10.73;5.25;;;5.40;99.90;;;;;;5022553;28;20030;-72
2021/12/01 02:58:40;;;;;;;10.15;4.85;;;5.30;99.90;;;;;;5001471;28;20034;-73
2021/12/01 03:01:12;;;;;;;11.80;5.20;;;5.30;99.90;;;;;;5018893;28;20026;-72
2021/12/01 03:03:39;;;;;;;9.05;4.57;;;5.30;99.90;;;;;;5021389;28;20064;-73
2021/12/01 03:06:05;;;;;;;13.90;5.72;;;5.30;99.90;;;;;;5019978;28;20025;-72
2021/12/01 03:08:31;;;;;;;9.55;4.82;;;5.30;99.90;;;;;;5018919;28;20697;-74
2021/12/01 03:10:57;;;;;;;10.05;5.45;;;5.30;99.90;;;;;;5018474;28;20104;-73
2021/12/01 03:13:24;;;;;;;9.13;4.55;;;5.30;99.90;;;;;;5018576;28;20514;-73
2021/12/01 03:15:50;;;;;;;9.70;4.00;;;5.30;99.90;;;;;;5015322;28;20034;-73
2021/12/01 03:18:18;;;;;;;10.48;4.50;;;5.30;99.90;;;;;;5019900;28;20095;-73
2021/12/01 03:20:44;;;;;;;12.73;4.45;;;5.30;99.90;;;;;;5023745;28;20371;-73
2021/12/01 03:23:10;;;;;;;11.50;4.30;;;5.30;99.90;;;;;;5019486;28;20022;-74
2021/12/01 03:25:36;;;;;;;14.30;4.30;;;5.30;99.90;;;;;;5019012;28;20029;-73
2021/12/01 03:28:05;;;;;;;10.32;4.50;;;5.30;99.90;;;;;;5020551;28;20096;-71
2021/12/01 03:30:34;;;;;;;11.15;4.50;;;5.30;99.90;;;;;;5019728;28;20083;-73
2021/12/01 03:33:06;;;;;;;13.07;4.50;;;5.30;99.90;;;;;;5016073;28;20160;-73
2021/12/01 03:35:32;;;;;;;9.90;4.07;;;5.30;99.90;;;;;;5018246;28;20034;-73
2021/12/01 03:37:58;;;;;;;8.43;4.40;;;5.30;99.90;;;;;;5018887;28;20049;-73
2021/12/01 03:40:24;;;;;;;8.88;4.50;;;5.30;99.90;;;;;;5016448;28;20518;-73
2021/12/01 03:42:50;;;;;;;9.18;4.00;;;5.30;99.90;;;;;;5023388;28;20159;-71
2021/12/01 03:45:16;;;;;;;12.60;4.47;;;5.30;99.90;;;;;;5005647;28;20037;-73
2021/12/01 03:47:42;;;;;;;9.80;4.20;;;5.30;99.90;;;;;;4983902;28;20033;-73
2021/12/01 03:50:09;;;;;;;9.63;4.18;;;5.30;99.90;;;;;;5020948;28;20107;-73
2021/12/01 03:52:35;;;;;;;8.52;4.72;;;5.30;99.90;;;;;;5023460;28;20026;-71
2021/12/01 03:55:02;;;;;;;8.90;4.07;;;5.40;99.90;;;;;;5018310;28;20492;-73
2021/12/01 03:57:27;;;;;;;8.45;3.67;;;5.40;99.90;;;;;;5020579;28;20396;-72
2021/12/01 03:59:53;;;;;;;9.93;3.70;;;5.40;99.90;;;;;;5016711;28;20034;-72
2021/12/01 04:02:19;;;;;;;11.52;4.20;;;5.40;99.90;;;;;;5024262;28;20512;-72
2021/12/01 04:04:45;;;;;;;7.95;3.53;;;5.40;99.90;;;;;;5016574;28;20074;-72
2021/12/01 04:07:11;;;;;;;9.00;4.07;;;5.40;99.90;;;;;;5014241;28;20056;-72
2021/12/01 04:09:39;;;;;;;8.13;3.35;;;5.40;99.90;;;;;;5020134;28;20512;-73
2021/12/01 04:12:05;;;;;;;8.73;3.55;;;5.40;99.90;;;;;;5019186;28;20061;-73
2021/12/01 04:14:31;;;;;;;7.60;3.28;;;5.40;99.90;;;;;;5019003;28;20026;-73
2021/12/01 04:16:57;;;;;;;9.60;3.67;;;5.40;99.90;;;;;;5025042;28;20030;-73
2021/12/01 04:19:22;;;;;;;6.90;3.58;;;5.40;99.90;;;;;;5020856;28;20141;-73
2021/12/01 04:21:49;;;;;;;6.30;3.72;;;5.50;99.90;;;;;;5025657;28;20036;-73
2021/12/01 04:24:15;;;;;;;6.30;3.33;;;5.50;99.90;;;;;;5024540;28;20022;-73
2021/12/01 04:26:41;;;;;;;8.60;3.60;;;5.50;99.90;;;;;;5020151;28;20414;-72
2021/12/01 04:29:07;;;;;;;6.97;3.75;;;5.50;99.90;;;;;;5022574;28;20032;-73
2021/12/01 04:31:37;;;;;;;6.22;3.55;;;5.50;99.90;;;;;;5018512;28;20032;-73
2021/12/01 04:34:04;;;;;;;5.75;3.67;;;5.50;99.90;;;;;;5021639;28;20022;-73
2021/12/01 04:36:37;;;;;;;5.63;3.83;;;5.50;99.90;;;;;;5023456;28;20036;-73
2021/12/01 04:39:06;;;;;;;5.72;3.70;;;5.60;99.90;;;;;;5021359;28;20056;-73
2021/12/01 04:41:38;;;;;;;6.50;3.90;;;5.60;99.90;;;;;;5025193;28;20038;-74
2021/12/01 04:44:09;;;;;;;10.25;4.35;;;5.60;99.90;;;;;;5007615;28;20026;-74
2021/12/01 04:46:41;;;;;;;5.13;3.30;;;5.60;99.90;;;;;;5002261;28;20121;-73
2021/12/01 04:49:08;;;;;;;6.20;3.45;;;5.60;99.90;;;;;;5022833;28;20088;-71
2021/12/01 04:51:34;;;;;;;6.63;3.42;;;5.60;99.90;;;;;;5021865;28;20025;-73
2021/12/01 04:54:00;;;;;;;6.80;3.78;;;5.70;99.90;;;;;;5027774;28;20018;-73
2021/12/01 04:56:26;;;;;;;6.53;3.42;;;5.70;99.90;;;;;;5022523;28;20075;-73
2021/12/01 04:58:52;;;;;;;6.47;3.97;;;5.70;99.90;;;;;;5020071;28;20112;-73
2021/12/01 05:01:18;;;;;;;7.20;3.40;;;5.70;99.90;;;;;;5022151;28;20057;-74
2021/12/01 05:03:44;;;;;;;6.25;3.65;;;5.70;99.90;;;;;;5021333;28;20037;-73
2021/12/01 05:06:12;;;;;;;7.38;4.25;;;5.70;99.90;;;;;;4988370;28;20594;-73
2021/12/01 05:08:39;;;;;;;6.40;4.10;;;5.70;99.90;;;;;;5021095;28;20415;-73
2021/12/01 05:11:04;;;;;;;6.95;3.90;;;5.70;99.90;;;;;;5020840;28;20037;-72
2021/12/01 05:13:30;;;;;;;6.15;3.78;;;5.70;99.90;;;;;;5024325;28;20022;-72
2021/12/01 05:15:56;;;;;;;8.88;4.40;;;5.70;99.90;;;;;;5023813;28;20060;-72
2021/12/01 05:18:22;;;;;;;6.35;4.07;;;5.80;99.90;;;;;;5020659;28;20558;-73
2021/12/01 05:20:48;;;;;;;7.13;4.40;;;5.80;99.90;;;;;;5021500;28;20029;-72
2021/12/01 05:23:18;;;;;;;7.53;4.40;;;5.80;99.90;;;;;;5026912;28;20037;-73
2021/12/01 05:25:44;;;;;;;6.35;4.78;;;5.80;99.90;;;;;;5018695;28;21125;-73
2021/12/01 05:28:10;;;;;;;7.50;4.78;;;5.80;99.90;;;;;;5023413;28;20022;-73
2021/12/01 05:30:36;;;;;;;6.88;4.60;;;5.90;99.90;;;;;;5019378;28;20032;-72
2021/12/01 05:33:08;;;;;;;7.97;5.13;;;5.90;99.90;;;;;;5003078;28;20034;-73
2021/12/01 05:35:35;;;;;;;7.28;4.90;;;5.90;99.90;;;;;;5020548;28;20558;-73
2021/12/01 05:38:03;;;;;;;7.53;5.22;;;6.00;99.90;;;;;;5024572;28;20064;-74
2021/12/01 05:40:29;;;;;;;8.38;4.70;;;6.00;99.90;;;;;;5027006;28;20037;-73
2021/12/01 05:42:55;;;;;;;9.25;5.20;;;6.00;99.90;;;;;;5008147;28;20052;-74
2021/12/01 05:45:20;;;;;;;7.90;5.07;;;6.10;99.90;;;;;;5023585;28;20456;-73
2021/12/01 05:47:46;;;;;;;6.30;4.35;;;6.10;99.90;;;;;;5024026;28;20504;-74
2021/12/01 05:50:12;;;;;;;8.10;4.50;;;6.10;99.90;;;;;;5021856;28;20028;-74
2021/12/01 05:52:38;;;;;;;7.95;5.32;;;6.20;99.90;;;;;;5018084;28;20030;-74
2021/12/01 05:55:06;;;;;;;8.38;5.03;;;6.20;99.90;;;;;;5026401;28;20492;-74
2021/12/01 05:57:31;;;;;;;8.85;4.93;;;6.30;99.90;;;;;;5018944;28;20033;-73
2021/12/01 05:59:59;;;;;;;7.38;4.85;;;6.30;99.90;;;;;;5003860;28;20045;-74
2021/12/01 06:02:28;;;;;;;7.95;5.13;;;6.30;99.90;;;;;;5003731;28;20440;-73
2021/12/01 06:04:54;;;;;;;11.43;5.88;;;6.40;99.90;;;;;;5020411;28;20756;-73
2021/12/01 06:07:20;;;;;;;10.25;6.20;;;6.60;99.90;;;;;;5019344;28;20040;-74
2021/12/01 06:09:46;;;;;;;16.45;7.43;;;6.60;99.90;;;;;;5019893;28;20117;-77
2021/12/01 06:12:15;;;;;;;18.35;8.30;;;6.70;99.90;;;;;;5014631;28;20130;-73
2021/12/01 06:14:43;;;;;;;18.10;9.40;;;6.90;99.90;;;;;;5011857;28;20091;-73
2021/12/01 06:17:10;;;;;;;26.05;11.32;;;7.10;99.90;;;;;;5015476;28;20048;-73
2021/12/01 06:19:37;;;;;;;20.48;9.93;;;7.30;99.90;;;;;;5013285;28;20117;-75
2021/12/01 06:22:07;;;;;;;30.75;13.63;;;7.50;99.90;;;;;;5001507;28;20678;-74
2021/12/01 06:24:34;;;;;;;29.55;12.20;;;7.60;99.90;;;;;;5013769;28;20359;-74
2021/12/01 06:27:00;;;;;;;31.92;12.95;;;7.70;99.90;;;;;;5016541;28;20026;-73
2021/12/01 06:29:26;;;;;;;34.08;12.60;;;7.80;99.90;;;;;;5016865;28;20638;-76
2021/12/01 06:31:51;;;;;;;30.95;13.32;;;7.80;99.90;;;;;;5013185;28;20130;-74
2021/12/01 06:34:17;;;;;;;25.88;12.57;;;7.90;99.90;;;;;;5004180;28;20025;-75
2021/12/01 06:36:45;;;;;;;27.90;12.38;;;8.00;99.90;;;;;;4995989;28;20030;-75
2021/12/01 06:39:11;;;;;;;20.65;10.23;;;8.00;99.90;;;;;;5017884;28;20125;-75
2021/12/01 06:41:37;;;;;;;18.13;9.65;;;8.10;99.90;;;;;;4998097;28;20522;-73
2021/12/01 06:44:03;;;;;;;19.77;9.77;;;8.10;99.90;;;;;;5015889;28;20022;-74
2021/12/01 06:46:29;;;;;;;17.92;8.95;;;8.20;99.90;;;;;;5014389;28;20037;-74
2021/12/01 06:48:56;;;;;;;16.80;8.75;;;8.20;99.90;;;;;;5016196;28;20436;-75
2021/12/01 06:51:23;;;;;;;19.38;8.95;;;8.20;99.90;;;;;;5015234;28;20108;-74
2021/12/01 06:53:49;;;;;;;15.43;7.68;;;8.30;99.90;;;;;;5013529;28;20026;-73
2021/12/01 06:56:16;;;;;;;15.38;8.05;;;8.30;99.90;;;;;;5015250;28;20030;-74
2021/12/01 06:58:43;;;;;;;13.65;7.60;;;8.30;99.90;;;;;;5012434;28;20314;-75
2021/12/01 07:01:09;;;;;;;11.55;6.75;;;8.30;99.90;;;;;;5014655;28;20061;-75
2021/12/01 07:03:35;;;;;;;12.05;7.55;;;8.30;99.90;;;;;;5001615;28;20034;-73
2021/12/01 07:06:01;;;;;;;15.90;7.25;;;8.30;99.90;;;;;;5015846;28;20065;-75
2021/12/01 07:08:28;;;;;;;12.23;7.22;;;8.30;99.90;;;;;;5021509;28;20022;-79
2021/12/01 07:10:53;;;;;;;10.20;6.50;;;8.30;99.90;;;;;;5020079;28;20049;-76
2021/12/01 07:13:19;;;;;;;14.38;6.97;;;8.30;99.90;;;;;;5008943;28;20665;-75
2021/12/01 07:15:45;;;;;;;9.65;6.57;;;8.30;99.90;;;;;;5017448;28;20030;-75
2021/12/01 07:18:11;;;;;;;12.05;7.22;;;8.30;99.90;;;;;;5016222;28;20034;-75
2021/12/01 07:20:37;;;;;;;10.57;6.38;;;8.30;99.90;;;;;;5011538;28;20029;-75
2021/12/01 07:23:03;;;;;;;11.90;7.30;;;8.30;99.90;;;;;;4996833;28;20034;-75
2021/12/01 07:25:30;;;;;;;12.60;7.13;;;8.30;99.90;;;;;;5012290;28;20033;-74
2021/12/01 07:27:56;;;;;;;13.10;7.40;;;8.30;99.90;;;;;;4996707;28;20068;-74
2021/12/01 07:30:22;;;;;;;11.10;7.15;;;8.30;99.90;;;;;;5016355;28;20492;-74
2021/12/01 07:32:49;;;;;;;10.70;7.20;;;8.30;99.90;;;;;;5024438;28;20025;-73
2021/12/01 07:35:15;;;;;;;11.57;7.45;;;8.30;99.90;;;;;;5004958;28;20395;-73
2021/12/01 07:37:41;;;;;;;11.13;7.20;;;8.30;99.90;;;;;;5011911;28;20038;-74
2021/12/01 07:40:08;;;;;;;12.65;8.13;;;8.30;99.90;;;;;;5016652;28;20040;-73
2021/12/01 07:42:34;;;;;;;11.65;7.75;;;8.30;99.90;;;;;;5001419;28;20029;-74
2021/12/01 07:45:00;;;;;;;11.00;7.88;;;8.30;99.90;;;;;;5021402;28;20022;-73
2021/12/01 07:47:25;;;;;;;11.00;7.85;;;8.20;99.90;;;;;;5018822;28;20025;-73
2021/12/01 07:49:51;;;;;;;12.27;7.28;;;8.20;99.90;;;;;;5011169;28;20057;-73
2021/12/01 07:52:17;;;;;;;12.43;8.40;;;8.30;99.90;;;;;;5026857;28;20372;-74
2021/12/01 07:54:43;;;;;;;12.90;8.60;;;8.20;99.90;;;;;;5021405;28;20077;-73
2021/12/01 07:57:09;;;;;;;13.30;8.93;;;8.20;99.90;;;;;;5005691;28;20018;-73
2021/12/01 07:59:35;;;;;;;12.25;7.90;;;8.20;99.90;;;;;;5019420;28;20038;-73
2021/12/01 08:02:01;;;;;;;10.00;7.25;;;8.20;99.90;;;;;;5019003;28;20026;-73
2021/12/01 08:04:27;;;;;;;12.32;8.10;;;8.20;99.90;;;;;;5022492;28;20026;-74
2021/12/01 08:06:54;;;;;;;9.95;7.55;;;8.20;99.90;;;;;;5020891;28;20040;-74
2021/12/01 08:09:21;;;;;;;12.10;6.75;;;8.20;99.90;;;;;;5020916;28;20022;-73
2021/12/01 08:11:47;;;;;;;11.07;7.72;;;8.20;99.90;;;;;;5017713;28;20070;-73
2021/12/01 08:14:13;;;;;;;10.45;6.78;;;8.20;99.90;;;;;;5023230;28;20930;-74
2021/12/01 08:16:38;;;;;;;9.95;7.43;;;8.20;99.90;;;;;;5019584;28;20025;-74
2021/12/01 08:19:05;;;;;;;11.55;7.65;;;8.20;99.90;;;;;;5019997;28;20033;-74
2021/12/01 08:21:32;;;;;;;10.25;7.70;;;8.20;99.90;;;;;;5018526;28;20034;-74
2021/12/01 08:23:58;;;;;;;10.25;7.72;;;8.10;99.90;;;;;;5022328;28;20103;-74
2021/12/01 08:26:24;;;;;;;9.55;7.13;;;8.10;99.90;;;;;;5020148;28;20114;-74
2021/12/01 08:28:50;;;;;;;9.93;7.88;;;8.10;99.90;;;;;;5018624;28;20017;-74
2021/12/01 08:31:17;;;;;;;9.45;7.30;;;8.10;99.90;;;;;;5025471;28;20029;-73
2021/12/01 08:33:45;;;;;;;12.80;7.90;;;8.10;99.90;;;;;;5018500;28;20026;-74
2021/12/01 08:36:11;;;;;;;10.60;6.82;;;8.10;99.90;;;;;;5017293;28;20365;-74
2021/12/01 08:38:39;;;;;;;9.35;7.43;;;8.10;99.90;;;;;;5023113;28;20033;-73
2021/12/01 08:41:07;;;;;;;9.23;7.20;;;8.10;99.90;;;;;;5018387;28;20392;-72
2021/12/01 08:43:33;;;;;;;8.70;6.53;;;8.10;99.90;;;;;;5009145;28;20037;-73
2021/12/01 08:46:01;;;;;;;9.23;6.70;;;8.10;99.90;;;;;;5022919;28;20396;-73
2021/12/01 08:48:27;;;;;;;10.05;6.57;;;8.10;99.90;;;;;;5019543;28;20021;-75
2021/12/01 08:50:53;;;;;;;7.75;6.25;;;8.10;99.90;;;;;;5020106;28;20037;-74
2021/12/01 08:53:19;;;;;;;8.13;6.28;;;8.10;99.90;;;;;;5001442;28;20109;-73
2021/12/01 08:55:45;;;;;;;10.20;6.32;;;8.00;99.90;;;;;;5013500;28;20214;-75
2021/12/01 08:58:35;;;;;;;8.63;6.03;;;8.10;99.90;;;;;;5021483;28;20026;-74
2021/12/01 09:01:01;;;;;;;8.27;5.95;;;8.10;99.90;;;;;;5022553;28;20030;-73
2021/12/01 09:03:27;;;;;;;10.68;7.25;;;8.10;99.90;;;;;;5019192;28;20026;-73
2021/12/01 09:05:53;;;;;;;8.23;6.13;;;8.10;99.90;;;;;;5014268;28;20026;-74
2021/12/01 09:08:22;;;;;;;9.65;7.10;;;8.10;99.90;;;;;;5006506;28;20093;-73
2021/12/01 09:10:57;;;;;;;10.77;6.38;;;8.10;99.90;;;;;;5004254;28;20084;-74
2021/12/01 09:13:26;;;;;;;9.25;6.13;;;8.10;99.90;;;;;;5018338;28;20058;-73
2021/12/01 09:15:53;;;;;;;9.48;6.50;;;8.10;99.90;;;;;;5022856;28;20093;-73
2021/12/01 09:18:20;;;;;;;8.82;6.32;;;8.10;99.90;;;;;;5018704;28;20030;-74
2021/12/01 09:20:46;;;;;;;7.57;6.50;;;8.00;99.90;;;;;;5020335;28;20030;-74
2021/12/01 09:23:13;;;;;;;9.95;5.82;;;8.10;99.90;;;;;;5017785;28;20038;-74
2021/12/01 09:25:39;;;;;;;8.25;6.25;;;8.10;99.90;;;;;;5001894;28;20045;-74
2021/12/01 09:28:05;;;;;;;7.22;6.07;;;8.10;99.90;;;;;;5021616;28;20901;-74
2021/12/01 09:30:31;;;;;;;7.22;6.10;;;8.00;99.90;;;;;;5021290;28;20025;-73
2021/12/01 09:32:57;;;;;;;9.30;6.15;;;8.10;99.90;;;;;;5019740;28;20113;-74
2021/12/01 09:35:23;;;;;;;7.50;6.25;;;8.10;99.90;;;;;;5020295;28;20100;-75
2021/12/01 09:37:50;;;;;;;9.77;6.65;;;8.10;99.90;;;;;;5019453;28;20488;-75
2021/12/01 09:40:18;;;;;;;7.68;6.10;;;8.10;99.90;;;;;;5019433;28;20040;-74
2021/12/01 09:42:49;;;;;;;9.30;6.57;;;8.00;99.90;;;;;;5016619;28;20025;-76
2021/12/01 09:45:17;;;;;;;8.75;5.82;;;8.10;99.90;;;;;;5019709;28;20025;-75
2021/12/01 09:47:43;;;;;;;6.40;5.50;;;8.10;99.90;;;;;;5001501;28;20061;-76
2021/12/01 09:50:10;;;;;;;7.63;5.50;;;8.10;99.90;;;;;;5005119;28;20104;-75
2021/12/01 09:52:36;;;;;;;6.80;5.45;;;8.00;99.90;;;;;;5022669;28;20029;-75
2021/12/01 09:55:03;;;;;;;7.15;5.13;;;8.00;99.90;;;;;;5022162;28;20026;-75
2021/12/01 09:57:29;;;;;;;5.72;4.75;;;8.00;99.90;;;;;;5022816;28;20395;-74
2021/12/01 09:59:55;;;;;;;6.50;4.65;;;8.10;99.90;;;;;;5011970;28;20030;-74
2021/12/01 10:02:24;;;;;;;6.07;4.60;;;8.10;99.90;;;;;;5015391;28;20031;-75
2021/12/01 10:04:51;;;;;;;6.47;4.60;;;8.10;99.90;;;;;;5016105;28;20040;-75
2021/12/01 10:07:33;;;;;;;9.43;5.05;;;8.10;99.90;;;;;;5024277;28;20021;-74
2021/12/01 10:10:06;;;;;;;7.22;4.90;;;8.10;99.90;;;;;;5001581;28;20046;-75
2021/12/01 10:12:47;;;;;;;5.63;4.38;;;8.10;99.90;;;;;;5024326;28;20029;-75
2021/12/01 10:15:14;;;;;;;6.50;4.80;;;8.10;99.90;;;;;;4998727;28;20112;-75
2021/12/01 10:17:40;;;;;;;6.55;4.15;;;8.10;99.90;;;;;;5014211;28;20030;-74
2021/12/01 10:20:18;;;;;;;6.28;4.65;;;8.10;99.90;;;;;;5014337;28;20057;-76
2021/12/01 10:23:09;;;;;;;5.88;4.10;;;8.20;99.90;;;;;;5021839;28;20483;-76
2021/12/01 10:25:35;;;;;;;6.40;3.95;;;8.20;99.90;;;;;;5014893;28;20036;-75
2021/12/01 10:28:01;;;;;;;4.93;3.83;;;8.20;99.90;;;;;;5023039;28;20025;-74
2021/12/01 10:30:44;;;;;;;7.25;3.85;;;8.30;99.90;;;;;;4997779;28;20383;-74
2021/12/01 10:33:12;;;;;;;4.53;3.75;;;8.30;99.90;;;;;;5012322;28;20089;-76
2021/12/01 10:35:39;;;;;;;4.55;3.60;;;8.30;99.90;;;;;;5020092;28;20029;-75
2021/12/01 10:38:07;;;;;;;6.65;4.18;;;8.30;99.90;;;;;;5001772;28;20032;-76
2021/12/01 10:40:37;;;;;;;4.68;3.85;;;8.30;99.90;;;;;;5018195;28;20029;-76
2021/12/01 10:43:09;;;;;;;6.67;3.70;;;8.30;99.90;;;;;;5022878;28;20084;-76
2021/12/01 10:45:45;;;;;;;6.38;4.07;;;8.30;99.90;;;;;;5023611;28;20064;-75
2021/12/01 10:48:23;;;;;;;4.90;3.58;;;8.20;99.90;;;;;;5016225;28;20021;-75
2021/12/01 10:50:51;;;;;;;4.78;3.30;;;8.30;99.90;;;;;;5017715;28;20499;-76
2021/12/01 10:53:21;;;;;;;5.10;3.85;;;8.30;99.90;;;;;;4998677;28;20026;-76
2021/12/01 10:55:51;;;;;;;4.93;3.55;;;8.30;99.90;;;;;;5018304;28;20026;-76
2021/12/01 10:58:18;;;;;;;5.22;3.53;;;8.30;99.90;;;;;;5020319;28;20488;-76
2021/12/01 11:00:49;;;;;;;7.80;3.90;;;8.30;99.90;;;;;;5019982;28;20040;-76
2021/12/01 11:03:16;;;;;;;;;;;8.30;99.90;;;;;;5014942;28;20018;-75
2021/12/01 11:05:44;;;;;;;4.93;3.70;;;8.40;99.90;;;;;;5016196;28;19920;-75
2021/12/01 11:08:19;;;;;;;6.50;4.18;;;8.30;99.90;;;;;;5020949;28;20096;-76
2021/12/01 11:10:51;;;;;;;5.65;4.10;;;8.40;99.90;;;;;;5020251;28;20100;-76
2021/12/01 11:13:18;;;;;;;7.63;4.15;;;8.40;99.90;;;;;;5008933;28;20021;-76
2021/12/01 11:16:19;;;;;;;6.00;3.95;;;8.30;99.90;;;;;;5015336;28;20112;-76
2021/12/01 11:18:49;;;;;;;;;;;8.30;99.90;;;;;;4964394;28;20045;-75
2021/12/01 11:21:23;;;;;;;4.68;3.83;;;8.40;99.90;;;;;;5020184;28;19909;-76
2021/12/01 11:23:51;;;;;;;3.95;3.33;;;8.40;99.90;;;;;;5019502;28;20037;-75
2021/12/01 11:26:22;;;;;;;6.25;3.75;;;8.30;99.90;;;;;;5017568;28;20025;-78
2021/12/01 11:29:00;;;;;;;4.10;3.28;;;8.40;99.90;;;;;;5003118;28;20041;-75
2021/12/01 11:31:28;;;;;;;3.97;3.53;;;8.40;99.90;;;;;;4996347;28;20021;-76
2021/12/01 11:33:57;;;;;;;4.55;3.60;;;8.40;99.90;;;;;;5024406;28;20022;-75
2021/12/01 11:36:25;;;;;;;4.72;3.60;;;8.40;99.90;;;;;;4994254;28;20546;-75
2021/12/01 11:38:54;;;;;;;5.43;3.40;;;8.40;99.90;;;;;;5010676;28;20488;-74
2021/12/01 11:41:20;;;;;;;4.65;3.22;;;8.40;99.90;;;;;;5007795;28;20026;-74
2021/12/01 11:43:47;;;;;;;3.20;2.67;;;8.40;99.90;;;;;;5014197;28;20026;-75
2021/12/01 11:46:13;;;;;;;4.28;2.65;;;8.40;99.90;;;;;;5000667;28;20033;-75
2021/12/01 11:48:54;;;;;;;4.28;3.13;;;8.40;99.90;;;;;;5015728;28;20026;-74
2021/12/01 11:51:19;;;;;;;4.20;2.70;;;8.40;99.90;;;;;;5021486;28;20484;-74
2021/12/01 11:53:51;;;;;;;4.75;2.67;;;8.50;99.90;;;;;;5016927;28;20022;-75
2021/12/01 11:56:33;;;;;;;3.20;2.30;;;8.50;99.90;;;;;;5019093;28;20049;-74
2021/12/01 11:59:00;;;;;;;;;;;8.50;99.90;;;;;;5013501;28;20041;-75
2021/12/01 12:01:26;;;;;;;3.80;2.50;;;8.50;99.90;;;;;;5015289;28;20033;-73
2021/12/01 12:03:54;;;;;;;2.78;2.20;;;8.50;99.90;;;;;;5018572;28;20129;-74
2021/12/01 12:06:20;;;;;;;3.13;2.50;;;8.50;99.90;;;;;;5016668;28;20029;-74
2021/12/01 12:08:56;;;;;;;4.85;2.45;;;8.50;99.90;;;;;;5014613;28;20395;-74
2021/12/01 12:11:51;;;;;;;3.75;2.92;;;8.50;99.90;;;;;;5021425;28;20026;-74
2021/12/01 12:14:24;;;;;;;2.97;2.50;;;8.50;99.90;;;;;;5005340;28;20041;-74
2021/12/01 12:17:12;;;;;;;4.15;2.53;;;8.50;99.90;;;;;;5020902;28;20438;-73
2021/12/01 12:20:04;;;;;;;3.13;2.65;;;8.50;99.90;;;;;;5018940;28;20025;-74
2021/12/01 12:22:38;;;;;;;5.65;3.10;;;8.50;99.90;;;;;;5015265;28;20029;-73
2021/12/01 12:25:09;;;;;;;2.60;2.20;;;8.50;99.90;;;;;;5024692;28;20079;-73
2021/12/01 12:27:45;;;;;;;3.60;2.47;;;8.50;99.90;;;;;;5016006;28;20018;-73
2021/12/01 12:30:13;;;;;;;4.95;1.95;;;8.50;99.90;;;;;;5018010;28;20033;-74
2021/12/01 12:32:42;;;;;;;4.93;1.92;;;8.60;99.90;;;;;;5006138;28;20121;-74
2021/12/01 12:35:14;;;;;;;3.35;1.48;;;8.60;99.90;;;;;;5025887;28;20036;-74
2021/12/01 12:37:40;;;;;;;3.47;2.05;;;8.60;99.90;;;;;;5022441;28;20127;-74
2021/12/01 12:40:21;;;;;;;2.15;1.17;;;8.60;99.90;;;;;;5025139;28;20099;-74
2021/12/01 12:43:09;;;;;;;2.72;1.20;;;8.70;99.90;;;;;;5021540;28;20018;-74
2021/12/01 12:45:37;;;;;;;5.13;1.10;;;8.80;99.90;;;;;;5025968;28;20588;-74
2021/12/01 12:48:34;;;;;;;2.65;1.17;;;8.80;99.90;;;;;;5018161;28;20142;-74
2021/12/01 12:51:10;;;;;;;4.75;1.13;;;8.80;99.90;;;;;;5021363;28;20033;-74
2021/12/01 12:53:56;;;;;;;1.88;1.10;;;8.80;99.90;;;;;;5018976;28;20034;-74
2021/12/01 12:56:40;;;;;;;2.78;1.10;;;8.70;99.90;;;;;;5002866;28;20261;-74
2021/12/01 12:59:33;;;;;;;2.65;1.15;;;8.70;99.90;;;;;;5019357;28;20037;-74
2021/12/01 13:02:08;;;;;;;3.22;1.48;;;8.70;99.90;;;;;;5016223;28;20036;-74
2021/12/01 13:07:37;;;;;;;1.92;0.90;;;8.70;99.90;;;;;;5022463;28;20056;-74
2021/12/01 13:10:39;;;;;;;2.70;0.90;;;8.70;99.90;;;;;;5020145;28;20031;-73